.
WxDataArchive / Data Records for 2007-07-01
2007-06-30 July 2007 2007-07-02

Data Records for Sunday, 01 July 2007

Time	Temp	Chill	HIndex	Humid	Dewpt	 Wind 	HiWind	WindDir	Rain 	Barom 
-----	----	-----	------	-----	-----	------	------	-------	-----	----- 
00:00	62.7	62.7	62.7	68	52.0	0	0	---	0.00	30.060 
00:05	62.6	62.6	62.6	69	52.3	0	0	---	0.00	30.059 
00:10	62.4	62.4	62.4	69	52.1	0	0	---	0.00	30.059 
00:15	62.3	62.3	62.3	70	52.4	0	0	---	0.00	30.060 
00:20	62.1	62.1	62.1	71	52.6	0	0	---	0.00	30.058 
00:25	61.8	61.8	61.8	70	51.9	0	0	---	0.00	30.063 
00:30	61.6	61.6	61.6	70	51.7	0	0	---	0.00	30.066 
00:35	61.5	61.5	61.5	71	52.0	0	0	---	0.00	30.069 
00:40	61.3	61.3	61.3	72	52.2	0	0	---	0.00	30.068 
00:45	61.3	61.3	61.3	70	51.4	0	0	---	0.00	30.066 
00:50	61.3	61.3	61.3	71	51.8	0	0	---	0.00	30.065 
00:55	61.2	61.2	61.2	71	51.7	0	0	---	0.00	30.063 
01:00	61.0	61.0	61.0	70	51.1	0	0	---	0.00	30.061 
01:05	61.0	61.0	61.0	70	51.1	0	0	---	0.00	30.063 
01:10	60.9	60.9	60.9	70	51.0	0	0	---	0.00	30.063 
01:15	60.9	60.9	60.9	71	51.4	0	0	---	0.00	30.065 
01:20	61.0	61.0	61.0	70	51.1	0	0	---	0.00	30.061 
01:25	61.0	61.0	61.0	69	50.8	0	0	---	0.00	30.061 
01:30	60.9	60.9	60.9	69	50.7	0	0	---	0.00	30.060 
01:35	60.7	60.7	60.7	69	50.5	0	0	---	0.00	30.063 
01:40	60.7	60.7	60.7	70	50.9	0	1	135	0.00	30.066 
01:45	60.5	60.5	60.5	70	50.7	0	0	---	0.00	30.066 
01:50	60.5	60.5	60.5	71	51.0	0	0	---	0.00	30.068 
01:55	60.4	60.4	60.4	72	51.3	0	0	---	0.00	30.065 
02:00	60.4	60.4	60.4	72	51.3	0	2	135	0.00	30.065 
02:05	60.4	60.4	60.4	72	51.3	0	0	---	0.00	30.066 
02:10	60.4	60.4	60.4	72	51.3	0	2	135	0.00	30.066 
02:15	60.5	60.5	60.5	72	51.4	0	1	135	0.00	30.066 
02:20	60.5	60.5	60.5	72	51.4	0	2	135	0.00	30.066 
02:25	60.7	60.7	60.7	72	51.6	0	2	135	0.00	30.067 
02:30	60.9	60.9	60.9	72	51.8	0	2	135	0.00	30.067 
02:35	61.2	61.2	61.2	71	51.7	1	3	112	0.00	30.062 
02:40	61.5	61.5	61.5	70	51.6	1	3	90	0.00	30.064 
02:45	61.8	61.8	61.8	70	51.9	1	4	90	0.00	30.062 
02:50	62.0	62.0	62.0	69	51.7	0	2	90	0.00	30.064 
02:55	61.8	61.8	61.8	70	51.9	0	1	90	0.00	30.063 
03:00	61.6	61.6	61.6	70	51.7	0	0	---	0.00	30.064 
03:05	61.3	61.3	61.3	71	51.8	0	1	90	0.00	30.064 
03:10	61.0	61.0	61.0	72	51.9	0	0	---	0.00	30.064 
03:15	60.5	60.5	60.5	73	51.8	0	0	---	0.00	30.071 
03:20	60.1	60.1	60.1	74	51.8	0	3	90	0.00	30.072 
03:25	60.1	60.1	60.1	75	52.1	0	4	112	0.00	30.073 
03:30	59.9	59.9	59.9	75	52.0	0	1	112	0.00	30.074 
03:35	59.8	59.8	59.8	77	52.6	0	2	112	0.00	30.076 
03:40	59.9	59.9	59.9	77	52.7	1	5	112	0.00	30.075 
03:45	60.1	60.1	60.1	77	52.9	1	5	45	0.00	30.077 
03:50	60.2	60.2	60.2	77	53.0	0	2	45	0.00	30.079 
03:55	60.2	60.2	60.2	77	53.0	1	3	112	0.00	30.081 
04:00	60.4	60.4	60.4	77	53.2	1	2	68	0.00	30.085 
04:05	60.2	60.2	60.2	78	53.3	0	3	90	0.00	30.089 
04:10	60.1	60.1	60.1	78	53.2	0	1	90	0.00	30.088 
04:15	59.9	59.9	59.9	79	53.4	0	2	90	0.00	30.089 
04:20	59.8	59.8	59.8	79	53.3	0	2	90	0.00	30.090 
04:25	59.8	59.8	59.8	80	53.6	0	2	112	0.00	30.091 
04:30	59.6	59.6	59.6	80	53.4	0	1	112	0.00	30.093 
04:35	59.5	59.5	59.5	80	53.3	0	2	112	0.00	30.091 
04:40	59.5	59.5	59.5	81	53.7	0	1	112	0.00	30.092 
04:45	59.3	59.3	59.3	81	53.5	0	1	112	0.00	30.093 
04:50	59.2	59.2	59.2	81	53.4	0	2	112	0.00	30.091 
04:55	59.2	59.2	59.2	80	53.0	0	2	112	0.00	30.093 
05:00	59.3	59.3	59.3	80	53.1	1	4	112	0.00	30.093 
05:05	59.3	59.3	59.3	79	52.8	0	4	68	0.00	30.099 
05:10	59.3	59.3	59.3	79	52.8	0	2	68	0.00	30.103 
05:15	59.2	59.2	59.2	79	52.7	0	1	68	0.00	30.105 
05:20	59.0	59.0	59.0	79	52.5	0	3	68	0.00	30.105 
05:25	58.9	58.9	58.9	79	52.4	0	1	68	0.00	30.107 
05:30	58.9	58.9	58.9	79	52.4	0	1	68	0.00	30.107 
05:35	58.7	58.7	58.7	79	52.2	0	2	68	0.00	30.108 
05:40	58.6	58.6	58.6	78	51.8	0	3	112	0.00	30.108 
05:45	58.7	58.7	58.7	78	51.9	1	3	112	0.00	30.109 
05:50	58.9	58.9	58.9	77	51.7	1	5	112	0.00	30.110 
05:55	59.0	59.0	59.0	76	51.4	1	4	68	0.00	30.112 
06:00	59.2	59.2	59.2	76	51.6	1	4	135	0.00	30.111 
06:05	59.3	59.3	59.3	76	51.7	0	2	90	0.00	30.115 
06:10	59.5	59.5	59.5	76	51.9	1	4	135	0.00	30.119 
06:15	59.6	59.6	59.6	74	51.3	1	4	45	0.00	30.120 
06:20	59.9	59.9	59.9	74	51.6	1	2	45	0.00	30.120 
06:25	60.4	60.4	60.4	73	51.7	1	5	45	0.00	30.122 
06:30	61.0	61.0	61.0	71	51.5	1	4	90	0.00	30.120 
06:35	61.5	61.5	61.5	71	52.0	1	4	135	0.00	30.119 
06:40	61.8	61.8	61.8	70	51.9	2	5	90	0.00	30.120 
06:45	62.1	62.1	62.1	69	51.8	2	5	90	0.00	30.121 
06:50	62.6	62.6	62.6	68	51.9	2	6	90	0.00	30.122 
06:55	62.7	62.7	62.7	68	52.0	3	6	90	0.00	30.121 
07:00	63.2	63.2	63.2	67	52.1	1	7	90	0.00	30.123 
07:05	63.7	63.7	63.7	65	51.7	2	6	90	0.00	30.130 
07:10	63.9	63.9	63.9	66	52.3	3	7	90	0.00	30.129 
07:15	64.0	64.0	64.0	65	52.0	2	7	90	0.00	30.132 
07:20	64.2	64.2	64.2	65	52.2	3	6	112	0.00	30.131 
07:25	64.0	64.0	64.0	64	51.6	3	9	90	0.00	30.135 
07:30	64.3	64.3	64.3	64	51.9	2	5	90	0.00	30.135 
07:35	64.8	64.8	64.8	64	52.3	2	7	90	0.00	30.138 
07:40	64.8	64.8	64.8	63	51.9	4	9	90	0.00	30.141 
07:45	65.0	65.0	65.0	62	51.7	2	6	90	0.00	30.139 
07:50	65.3	65.3	65.3	62	51.9	4	7	90	0.00	30.141 
07:55	65.6	65.6	65.6	61	51.8	2	6	112	0.00	30.139 
08:00	66.0	66.0	66.0	59	51.3	3	10	112	0.00	30.139 
08:05	65.8	65.8	65.8	61	52.0	3	9	90	0.00	30.146 
08:10	66.1	66.1	66.1	59	51.3	3	9	112	0.00	30.146 
08:15	66.3	66.3	66.3	61	52.4	3	5	112	0.00	30.148 
08:20	66.8	66.8	66.8	59	52.0	2	7	90	0.00	30.143 
08:25	66.9	66.9	66.9	61	53.0	2	6	90	0.00	30.145 
08:30	67.6	67.6	67.6	58	52.3	2	5	90	0.00	30.147 
08:35	67.8	67.8	67.8	59	52.9	3	6	112	0.00	30.148 
08:40	68.1	68.1	68.1	59	53.2	2	3	112	0.00	30.149 
08:45	68.6	68.6	68.6	57	52.7	2	4	90	0.00	30.151 
08:50	68.8	68.8	68.8	57	52.9	2	6	90	0.00	30.152 
08:55	69.1	69.1	69.1	57	53.2	2	6	68	0.00	30.153 
09:00	69.1	69.1	69.1	57	53.2	3	6	90	0.00	30.153 
09:05	69.6	69.6	69.6	56	53.2	1	5	90	0.00	30.156 
09:10	69.9	69.9	69.9	55	53.0	2	4	90	0.00	30.157 
09:15	69.9	69.9	69.9	57	54.0	1	4	68	0.00	30.159 
09:20	70.4	70.4	70.4	58	54.9	1	3	112	0.00	30.160 
09:25	70.8	70.8	70.8	54	53.3	2	5	90	0.00	30.162 
09:30	70.8	70.8	70.8	54	53.3	2	7	90	0.00	30.165 
09:35	70.9	70.9	70.9	55	53.9	2	5	112	0.00	30.165 
09:40	71.3	71.3	71.3	56	54.8	2	4	90	0.00	30.165 
09:45	71.8	71.8	71.8	59	56.7	2	4	90	0.00	30.166 
09:50	72.1	72.1	72.1	53	54.0	1	4	68	0.00	30.165 
09:55	72.1	72.1	72.1	51	53.0	3	6	90	0.00	30.168 
10:00	72.3	72.3	72.3	53	54.2	1	5	90	0.00	30.166 
10:05	72.3	72.3	72.3	52	53.7	3	6	90	0.00	30.167 
10:10	72.7	72.7	72.7	55	55.6	1	5	112	0.00	30.163 
10:15	73.3	73.3	73.3	52	54.6	2	5	90	0.00	30.164 
10:20	73.7	73.7	73.7	55	56.5	2	4	112	0.00	30.161 
10:25	73.5	73.5	73.5	54	55.8	3	5	90	0.00	30.167 
10:30	73.5	73.5	73.5	50	53.7	2	6	90	0.00	30.167 
10:35	73.7	73.7	73.7	52	55.0	2	5	112	0.00	30.169 
10:40	74.0	74.0	74.0	51	54.7	1	2	45	0.00	30.169 
10:45	74.9	74.9	74.9	52	56.1	1	5	68	0.00	30.169 
10:50	75.4	75.4	77.8	53	57.1	1	5	112	0.00	30.169 
10:55	75.4	75.4	77.8	51	56.0	2	7	112	0.00	30.169 
11:00	75.4	75.4	77.8	48	54.3	2	5	112	0.00	30.169 
11:05	75.6	75.6	77.9	51	56.2	1	3	180	0.00	30.169 
11:10	75.8	75.8	78.0	48	54.7	3	7	112	0.00	30.169 
11:15	75.8	75.8	77.9	47	54.1	2	5	112	0.00	30.168 
11:20	75.4	75.4	77.8	51	56.0	2	12	90	0.00	30.167 
11:25	75.6	75.6	77.9	47	53.9	1	4	112	0.00	30.169 
11:30	75.4	75.4	77.8	49	54.9	2	5	112	0.00	30.168 
11:35	76.0	76.0	78.0	46	53.7	1	3	112	0.00	30.168 
11:40	76.8	76.8	78.5	50	56.7	2	6	90	0.00	30.166 
11:45	77.6	77.6	78.7	43	53.3	1	4	90	0.00	30.167 
11:50	78.5	78.5	79.1	42	53.5	1	5	90	0.00	30.167 
11:55	78.8	78.8	79.1	39	51.7	2	5	90	0.00	30.166 
12:00	78.8	78.8	79.4	43	54.4	1	3	90	0.00	30.165 
12:05	78.6	78.6	79.0	39	51.5	2	5	90	0.00	30.167 
12:10	77.4	77.4	78.6	44	53.8	1	3	248	0.00	30.169 
12:15	77.2	77.2	78.3	40	51.0	1	3	270	0.00	30.169 
12:20	76.7	76.7	78.2	43	52.5	2	6	90	0.00	30.169 
12:25	76.3	76.3	78.0	41	50.8	1	6	90	0.00	30.171 
12:30	75.6	75.6	77.8	45	52.7	0	3	270	0.00	30.172 
12:35	75.4	75.4	77.6	39	48.7	1	5	248	0.00	30.171 
12:40	76.0	76.0	77.8	40	49.9	3	7	90	0.00	30.172 
12:45	76.1	76.1	77.7	36	47.2	3	7	90	0.00	30.174 
12:50	76.5	76.5	77.9	38	49.0	1	3	112	0.00	30.170 
12:55	76.8	76.8	78.1	39	49.9	2	4	112	0.00	30.170 
13:00	77.6	77.6	78.4	38	50.0	2	6	90	0.00	30.169 
13:05	77.9	77.9	78.3	34	47.2	2	6	135	0.00	30.169 
13:10	78.1	78.1	78.5	36	48.9	1	4	90	0.00	30.171 
13:15	77.7	77.7	78.3	35	47.8	1	4	90	0.00	30.172 
13:20	77.0	77.0	78.1	37	48.7	1	4	112	0.00	30.173 
13:25	76.8	76.8	78.1	40	50.6	1	5	90	0.00	30.172 
13:30	77.9	77.9	78.5	37	49.5	2	7	68	0.00	30.172 
13:35	78.5	78.5	78.9	39	51.5	3	6	112	0.00	30.172 
13:40	79.0	79.0	78.9	34	48.2	1	2	112	0.00	30.172 
13:45	79.0	79.0	78.8	33	47.4	1	3	225	0.00	30.171 
13:50	79.2	79.2	78.9	33	47.6	2	7	112	0.00	30.169 
13:55	79.2	79.2	78.9	32	46.8	1	4	112	0.00	30.170 
14:00	79.4	79.4	79.2	36	50.1	1	5	45	0.00	30.168 
14:05	79.4	79.4	78.9	31	46.1	1	4	45	0.00	30.166 
14:10	78.3	78.3	78.3	30	44.3	1	4	270	0.00	30.167 
14:15	77.9	77.9	78.5	37	49.5	1	4	90	0.00	30.164 
14:20	78.5	78.5	78.6	34	47.8	1	6	292	0.00	30.163 
14:25	78.6	78.6	78.5	31	45.4	1	9	90	0.00	30.163 
14:30	78.3	78.3	78.6	36	49.1	1	5	158	0.00	30.160 
14:35	78.6	78.6	78.7	35	48.6	2	6	90	0.00	30.158 
14:40	78.6	78.6	78.7	34	47.9	3	6	90	0.00	30.160 
14:45	78.3	78.3	78.6	36	49.1	2	6	112	0.00	30.164 
14:50	78.5	78.5	78.6	34	47.8	2	7	90	0.00	30.159 
14:55	78.8	78.8	78.7	33	47.2	2	8	90	0.00	30.156 
15:00	78.1	78.1	78.4	33	46.6	4	7	90	0.00	30.153 
15:05	77.9	77.9	78.4	36	48.8	1	3	90	0.00	30.155 
15:10	77.7	77.7	78.4	37	49.3	1	5	90	0.00	30.155 
15:15	77.7	77.7	78.3	35	47.8	1	6	180	0.00	30.155 
15:20	78.3	78.3	78.5	33	46.8	1	2	270	0.00	30.155 
15:25	78.6	78.6	78.7	35	48.6	1	3	270	0.00	30.155 
15:30	77.7	77.7	78.2	34	47.1	1	2	292	0.00	30.154 
15:35	77.6	77.6	78.2	34	47.0	2	7	270	0.00	30.155 
15:40	77.9	77.9	78.3	34	47.2	1	5	292	0.00	30.153 
15:45	78.8	78.8	79.0	37	50.3	2	7	22	0.00	30.154 
15:50	78.8	78.8	78.8	34	48.0	4	10	90	0.00	30.155 
15:55	78.8	78.8	78.6	31	45.6	3	6	90	0.00	30.153 
16:00	78.3	78.3	78.3	31	45.2	1	4	112	0.00	30.153 
16:05	77.9	77.9	78.3	34	47.2	1	4	315	0.00	30.156 
16:10	78.5	78.5	78.6	33	47.0	1	2	338	0.00	30.152 
16:15	78.5	78.5	78.4	31	45.3	1	4	338	0.00	30.151 
16:20	78.3	78.3	78.3	31	45.2	1	2	315	0.00	30.152 
16:25	78.3	78.3	78.3	31	45.2	1	4	315	0.00	30.150 
16:30	78.5	78.5	78.4	30	44.5	1	5	112	0.00	30.149 
16:35	78.1	78.1	78.3	32	45.8	1	6	270	0.00	30.148 
16:40	77.0	77.0	77.8	32	44.9	1	3	270	0.00	30.145 
16:45	77.0	77.0	77.9	34	46.5	1	6	90	0.00	30.144 
16:50	77.6	77.6	77.9	30	43.7	3	6	112	0.00	30.145 
16:55	77.6	77.6	77.9	30	43.7	2	6	112	0.00	30.141 
17:00	77.4	77.4	78.0	32	45.2	1	6	22	0.00	30.141 
17:05	77.4	77.4	78.1	34	46.8	2	6	135	0.00	30.141 
17:10	76.8	76.8	77.8	33	45.5	2	5	135	0.00	30.143 
17:15	76.5	76.5	77.6	32	44.4	2	9	112	0.00	30.142 
17:20	76.5	76.5	77.8	35	46.8	1	5	135	0.00	30.142 
17:25	76.3	76.3	77.6	33	45.1	2	7	90	0.00	30.144 
17:30	75.4	75.4	77.3	33	44.3	0	3	270	0.00	30.145 
17:35	74.9	74.9	74.9	35	45.4	0	2	68	0.00	30.144 
17:40	74.6	74.6	74.6	33	43.6	1	5	68	0.00	30.143 
17:45	75.1	75.1	77.2	33	44.0	1	4	270	0.00	30.142 
17:50	75.3	75.3	77.3	34	45.0	0	2	0	0.00	30.142 
17:55	75.4	75.4	77.3	34	45.1	0	3	68	0.00	30.143 
18:00	75.4	75.4	77.3	34	45.1	1	5	112	0.00	30.141 
18:05	75.4	75.4	77.3	33	44.3	1	4	135	0.00	30.138 
18:10	75.3	75.3	77.4	35	45.7	1	3	90	0.00	30.139 
18:15	75.1	75.1	77.1	32	43.2	1	5	112	0.00	30.139 
18:20	75.1	75.1	77.3	35	45.6	0	3	0	0.00	30.139 
18:25	74.9	74.9	74.9	35	45.4	0	3	90	0.00	30.140 
18:30	74.7	74.7	74.7	34	44.4	0	2	112	0.00	30.139 
18:35	74.6	74.6	74.6	35	45.1	0	3	135	0.00	30.139 
18:40	74.6	74.6	74.6	35	45.1	0	2	135	0.00	30.140 
18:45	74.6	74.6	74.6	35	45.1	0	2	225	0.00	30.137 
18:50	74.4	74.4	74.4	36	45.7	0	3	270	0.00	30.138 
18:55	74.2	74.2	74.2	34	44.0	1	3	135	0.00	30.137 
19:00	73.9	73.9	73.9	34	43.7	0	2	158	0.00	30.139 
19:05	73.7	73.7	73.7	35	44.3	0	4	45	0.00	30.137 
19:10	73.3	73.3	73.3	34	43.2	0	3	158	0.00	30.136 
19:15	73.2	73.2	73.2	37	45.4	0	2	158	0.00	30.138 
19:20	73.0	73.0	73.0	36	44.5	1	4	68	0.00	30.139 
19:25	72.7	72.7	72.7	38	45.6	0	2	68	0.00	30.139 
19:30	72.5	72.5	72.5	38	45.4	0	3	90	0.00	30.140 
19:35	72.1	72.1	72.1	39	45.8	0	1	112	0.00	30.140 
19:40	71.8	71.8	71.8	39	45.5	0	2	135	0.00	30.141 
19:45	71.5	71.5	71.5	39	45.2	0	1	135	0.00	30.143 
19:50	70.9	70.9	70.9	42	46.6	0	1	135	0.00	30.150 
19:55	70.6	70.6	70.6	40	45.1	1	4	90	0.00	30.153 
20:00	70.6	70.6	70.6	41	45.7	1	4	45	0.00	30.155 
20:05	70.4	70.4	70.4	41	45.6	1	3	90	0.00	30.153 
20:10	70.1	70.1	70.1	42	45.9	1	2	90	0.00	30.153 
20:15	69.8	69.8	69.8	42	45.7	0	1	90	0.00	30.154 
20:20	69.4	69.4	69.4	44	46.5	0	1	90	0.00	30.154 
20:25	68.9	68.9	68.9	44	46.1	0	1	90	0.00	30.155 
20:30	68.6	68.6	68.6	45	46.4	0	4	135	0.00	30.156 
20:35	68.3	68.3	68.3	45	46.1	0	1	135	0.00	30.158 
20:40	67.9	67.9	67.9	46	46.3	0	1	135	0.00	30.162 
20:45	67.6	67.6	67.6	46	46.1	0	1	135	0.00	30.166 
20:50	67.3	67.3	67.3	47	46.4	0	2	68	0.00	30.170 
20:55	67.1	67.1	67.1	46	45.6	0	1	68	0.00	30.171 
21:00	66.8	66.8	66.8	47	45.9	0	2	68	0.00	30.171 
21:05	66.6	66.6	66.6	49	46.8	0	2	68	0.00	30.170 
21:10	66.3	66.3	66.3	48	46.0	1	3	112	0.00	30.171 
21:15	66.1	66.1	66.1	49	46.4	1	3	90	0.00	30.172 
21:20	66.0	66.0	66.0	50	46.8	1	4	112	0.00	30.172 
21:25	65.8	65.8	65.8	50	46.6	1	2	112	0.00	30.174 
21:30	65.5	65.5	65.5	51	46.9	2	4	112	0.00	30.172 
21:35	65.2	65.2	65.2	52	47.1	2	6	90	0.00	30.173 
21:40	65.0	65.0	65.0	52	46.9	2	5	90	0.00	30.174 
21:45	64.5	64.5	64.5	54	47.5	2	3	90	0.00	30.178 
21:50	64.2	64.2	64.2	55	47.7	1	3	90	0.00	30.182 
21:55	63.9	63.9	63.9	56	47.9	1	3	90	0.00	30.186 
22:00	63.5	63.5	63.5	57	48.0	0	1	90	0.00	30.187 
22:05	63.2	63.2	63.2	58	48.2	0	2	90	0.00	30.188 
22:10	62.9	62.9	62.9	58	47.9	0	1	90	0.00	30.187 
22:15	62.6	62.6	62.6	59	48.1	0	1	90	0.00	30.188 
22:20	62.4	62.4	62.4	59	47.9	0	1	90	0.00	30.188 
22:25	62.1	62.1	62.1	60	48.0	0	1	90	0.00	30.187 
22:30	62.0	62.0	62.0	61	48.4	0	1	90	0.00	30.189 
22:35	61.8	61.8	61.8	60	47.8	1	2	90	0.00	30.189 
22:40	61.8	61.8	61.8	59	47.3	1	3	112	0.00	30.193 
22:45	61.8	61.8	61.8	59	47.3	1	3	135	0.00	30.200 
22:50	62.0	62.0	62.0	59	47.5	1	3	112	0.00	30.201 
22:55	61.8	61.8	61.8	60	47.8	1	3	90	0.00	30.202 
23:00	61.6	61.6	61.6	60	47.6	1	3	90	0.00	30.202 
23:05	61.6	61.6	61.6	61	48.0	1	3	90	0.00	30.199 
23:10	61.3	61.3	61.3	61	47.7	1	3	68	0.00	30.199 
23:15	61.2	61.2	61.2	62	48.1	1	2	68	0.00	30.199 
23:20	61.0	61.0	61.0	62	47.9	1	3	68	0.00	30.199 
23:25	60.9	60.9	60.9	62	47.8	1	3	112	0.00	30.200 
23:30	60.7	60.7	60.7	62	47.6	1	3	90	0.00	30.200 
23:35	60.5	60.5	60.5	63	47.8	0	2	90	0.00	30.200 
23:40	60.2	60.2	60.2	63	47.6	1	2	90	0.00	30.202 
23:45	60.1	60.1	60.1	64	47.9	1	2	90	0.00	30.202 
23:50	59.9	59.9	59.9	64	47.7	1	2	90	0.00	30.202 
23:55	59.8	59.8	59.8	65	48.0	1	2	90	0.00	30.202 

CoCoRaHS
IN-AL-39
A2 Web Hosting
Creative Commons License
GoDaddy
Look for:

loaded 2017-12-13 02:28:56 • last modified 2010-11-18 10:43:29
Privacy PolicyDisclaimer
• wx.awcolley.com is powered by PmWiki v.2002016 •
• all content (unless otherwise noted) © 2017 A W Colley